Archival Weather

NSFA McMurdo Sound

NSFA McMurdo Sound, Antarctica (NZCM)

Report from: Saturday, April 1, 2023 10:55 PM UTC
Current time: Monday, July 22, 2024 11:53 AM UTC

Current weather – Weather history – Daily summaries
Weather forecast

Present weatherHaze
Temperature-26.6°C (-15.9°F)
Wind chill-41.4°C (-42.6°F)
Dew point-30.8°C (-23.4°F)
Winds 17 kts (8.7 m/s, 19.6 mph) East-Northeast (70°)
Visibility3.1 mi. (5 km)
Clouds Sky clear
Altimeter29.88 in.Hg (1012 mB)
Relative humidity67 %
Density altitude-5,375 ft. (-1,638 m)
Sea-level pressure101.3 kPa (1013 mB, 29.90 in.Hg)
Remarks Fully automated report
Automated weather observing station with precipitation discriminator
Flight conditions Marginal Visual Meteorological Conditions
Raw dataNZCM 012255Z AUTO 07017KT 5000 HZ CLR M27/M31 A2988 RMK AO2 SLP125 T12661308
An error has occurred. This application may no longer respond until reloaded. Reload 🗙